createdAt,value
2023-01-29T00:00:14.084Z,-0.99
2023-01-29T00:05:28.517Z,-1.19
2023-01-29T00:10:34.262Z,-1.10
2023-01-29T00:15:38.135Z,-1.27
2023-01-29T00:20:45.124Z,-1.21
2023-01-29T00:25:50.931Z,-1.12
2023-01-29T00:30:55.158Z,-1.16
2023-01-29T00:35:59.184Z,-1.15
2023-01-29T00:41:26.218Z,-1.14
2023-01-29T00:46:30.235Z,-1.09
2023-01-29T00:51:34.726Z,-0.91
2023-01-29T00:56:40.443Z,-0.86
2023-01-29T01:02:02.147Z,-1.14
2023-01-29T01:07:07.078Z,-1.19
2023-01-29T01:12:12.959Z,-1.24
2023-01-29T01:17:16.906Z,-1.16
2023-01-29T01:22:23.305Z,-1.20
2023-01-29T01:27:30.101Z,-1.27
2023-01-29T01:32:34.454Z,-1.20
2023-01-29T01:37:38.979Z,-1.12
2023-01-29T01:42:44.639Z,-1.25
2023-01-29T01:47:53.519Z,-1.24
2023-01-29T01:53:02.837Z,-1.31
2023-01-29T01:58:13.565Z,-1.20
2023-01-29T02:03:38.533Z,-1.26
2023-01-29T02:09:07.614Z,-1.23
2023-01-29T02:14:14.597Z,-1.15
2023-01-29T02:19:27.108Z,-1.34
2023-01-29T02:25:09.824Z,-1.23
2023-01-29T02:30:22.273Z,-1.43
2023-01-29T02:35:33.441Z,-1.36
2023-01-29T02:40:44.324Z,-1.42
2023-01-29T02:45:58.050Z,-1.29
2023-01-29T02:51:10.020Z,-1.36
2023-01-29T02:56:20.347Z,-1.28
2023-01-29T03:01:32.580Z,-1.18
2023-01-29T03:06:41.489Z,-1.06
2023-01-29T03:11:50.682Z,-1.10
2023-01-29T03:17:00.674Z,-1.18
2023-01-29T03:22:08.559Z,-1.06
2023-01-29T03:27:32.525Z,-1.14
2023-01-29T03:32:39.763Z,-1.14
2023-01-29T03:37:48.429Z,-1.19
2023-01-29T03:43:04.684Z,-1.07
2023-01-29T03:48:15.399Z,-1.00
2023-01-29T03:53:26.145Z,-0.66
2023-01-29T03:58:38.545Z,-0.68
2023-01-29T04:03:51.300Z,-0.70
2023-01-29T04:09:01.224Z,-0.87
2023-01-29T04:14:08.142Z,-0.66
2023-01-29T04:19:13.940Z,-0.46
2023-01-29T04:24:20.277Z,-0.81
2023-01-29T04:29:38.283Z,-0.56
2023-01-29T04:34:57.309Z,-0.64
2023-01-29T04:40:12.315Z,-0.75
2023-01-29T04:45:21.319Z,-0.18
2023-01-29T04:50:31.981Z,-0.18
2023-01-29T04:55:42.956Z,-0.36
2023-01-29T05:00:50.278Z,-0.53
2023-01-29T05:05:58.543Z,-0.39
2023-01-29T05:11:02.787Z,-0.25
2023-01-29T05:16:11.257Z,-0.45
2023-01-29T05:21:16.801Z,-0.24
2023-01-29T05:26:38.995Z,-0.07
2023-01-29T05:31:46.080Z,-0.20
2023-01-29T05:36:52.828Z,-0.35
2023-01-29T05:41:57.793Z,-0.35
2023-01-29T05:47:03.051Z,-0.30
2023-01-29T05:52:08.644Z,-0.10
2023-01-29T05:57:12.634Z,0.02
2023-01-29T06:02:16.952Z,-0.28
2023-01-29T06:07:22.421Z,-0.22
2023-01-29T06:12:27.409Z,-0.22
2023-01-29T06:17:32.136Z,-0.34
2023-01-29T06:22:38.803Z,-0.40
2023-01-29T06:27:43.301Z,-0.52
2023-01-29T06:32:48.449Z,-0.51
2023-01-29T06:37:54.370Z,-0.62
2023-01-29T06:42:58.500Z,-0.70
2023-01-29T06:48:02.964Z,-0.63
2023-01-29T06:53:09.321Z,-0.47
2023-01-29T06:58:15.026Z,-0.64
2023-01-29T07:03:19.906Z,-0.41
2023-01-29T07:08:26.589Z,-0.59
2023-01-29T07:13:32.123Z,-0.76
2023-01-29T07:18:37.633Z,-0.54
2023-01-29T07:23:44.810Z,-0.76
2023-01-29T07:28:49.408Z,-0.57
2023-01-29T07:33:54.333Z,-0.55
2023-01-29T07:39:00.770Z,-0.58
2023-01-29T07:44:06.122Z,-0.49
2023-01-29T07:49:10.982Z,-0.50
2023-01-29T07:54:17.837Z,-0.57
2023-01-29T07:59:27.304Z,-0.59
2023-01-29T08:04:32.410Z,-0.30
2023-01-29T08:09:40.005Z,-0.49
2023-01-29T08:14:46.377Z,-0.36
2023-01-29T08:19:52.027Z,-0.23
2023-01-29T08:25:06.364Z,-0.19
2023-01-29T08:30:14.365Z,-0.21
2023-01-29T08:35:20.723Z,-0.15
2023-01-29T08:40:28.339Z,0.03
2023-01-29T08:45:48.850Z,-0.12
2023-01-29T08:50:53.194Z,-0.12
2023-01-29T08:55:59.153Z,-0.23
2023-01-29T09:01:13.593Z,-0.27
2023-01-29T09:06:28.723Z,-0.30
2023-01-29T09:11:53.274Z,-0.16
2023-01-29T09:17:02.407Z,-0.32
2023-01-29T09:22:10.998Z,-0.13
2023-01-29T09:27:21.368Z,-0.02
2023-01-29T09:37:58.443Z,0.23
2023-01-29T09:43:17.614Z,0.29
2023-01-29T09:48:27.906Z,0.50
2023-01-29T09:53:50.141Z,0.60
2023-01-29T09:59:01.773Z,0.61
2023-01-29T10:04:40.431Z,0.82
2023-01-29T10:10:17.156Z,0.98
2023-01-29T10:15:36.578Z,1.08
2023-01-29T10:20:58.236Z,1.31
2023-01-29T10:26:20.881Z,1.65
2023-01-29T10:31:33.003Z,1.62
2023-01-29T10:36:44.649Z,1.65
2023-01-29T10:42:14.959Z,1.80
2023-01-29T10:47:49.577Z,1.87
2023-01-29T10:53:18.629Z,2.43
2023-01-29T10:58:32.047Z,2.21
2023-01-29T11:03:39.119Z,2.02
2023-01-29T11:08:58.254Z,2.44
2023-01-29T11:14:07.831Z,2.25
2023-01-29T11:19:15.661Z,2.53
2023-01-29T11:24:21.488Z,2.57
2023-01-29T11:29:44.992Z,2.56
2023-01-29T11:35:02.985Z,2.23
2023-01-29T11:40:46.599Z,2.17
2023-01-29T11:45:59.511Z,1.94
2023-01-29T11:51:07.142Z,1.85
2023-01-29T11:56:30.940Z,2.05
2023-01-29T12:01:41.082Z,2.41
2023-01-29T12:06:52.548Z,2.61
2023-01-29T12:12:20.168Z,2.57
2023-01-29T12:17:30.492Z,2.19
2023-01-29T12:22:47.190Z,2.43
2023-01-29T12:28:01.102Z,2.41
2023-01-29T12:33:16.080Z,2.33
2023-01-29T12:38:27.879Z,2.44
2023-01-29T12:43:41.973Z,2.36
2023-01-29T12:48:48.750Z,2.36
2023-01-29T12:53:58.960Z,2.66
2023-01-29T12:59:12.368Z,2.33
2023-01-29T13:04:24.382Z,1.96
2023-01-29T13:09:34.380Z,1.77
2023-01-29T13:14:58.946Z,1.99
2023-01-29T13:20:12.976Z,2.49
2023-01-29T13:25:22.252Z,2.39
2023-01-29T13:30:32.747Z,2.04
2023-01-29T13:35:44.045Z,1.82
2023-01-29T13:40:55.645Z,1.77
2023-01-29T13:46:10.858Z,1.82
2023-01-29T13:51:21.875Z,1.62
2023-01-29T13:56:59.387Z,1.83
2023-01-29T14:02:07.487Z,1.84
2023-01-29T14:07:46.353Z,1.63
2023-01-29T14:12:54.298Z,1.46
2023-01-29T14:18:08.569Z,1.36
2023-01-29T14:23:32.950Z,1.22
2023-01-29T14:28:38.662Z,0.66
2023-01-29T14:33:48.836Z,0.77
2023-01-29T14:38:56.160Z,0.62
2023-01-29T14:44:33.132Z,0.50
2023-01-29T14:49:55.881Z,0.49
2023-01-29T14:55:04.493Z,0.36
2023-01-29T15:00:22.825Z,0.47
2023-01-29T15:05:40.761Z,0.49
2023-01-29T15:11:11.210Z,0.67
2023-01-29T15:16:21.633Z,0.86
2023-01-29T15:21:29.680Z,0.51
2023-01-29T15:26:36.166Z,0.43
2023-01-29T15:31:46.898Z,0.42
2023-01-29T15:36:54.445Z,0.62
2023-01-29T15:42:16.004Z,0.84
2023-01-29T15:47:22.294Z,0.34
2023-01-29T15:52:33.055Z,0.40
2023-01-29T15:57:42.955Z,0.12
2023-01-29T16:02:47.466Z,0.12
2023-01-29T16:07:58.052Z,0.04
2023-01-29T16:13:02.871Z,0.21
2023-01-29T16:18:22.959Z,0.08
2023-01-29T16:23:32.461Z,0.05
2023-01-29T16:28:42.182Z,-0.10
2023-01-29T16:33:46.689Z,0.04
2023-01-29T16:38:56.439Z,-0.06
2023-01-29T16:44:04.265Z,0.20
2023-01-29T16:49:45.915Z,0.46
2023-01-29T16:54:52.209Z,0.32
2023-01-29T16:59:58.751Z,0.13
2023-01-29T17:05:06.613Z,0.01
2023-01-29T17:10:23.186Z,-0.17
2023-01-29T17:15:45.549Z,-0.21
2023-01-29T17:20:50.589Z,-0.25
2023-01-29T17:25:56.080Z,-0.26
2023-01-29T17:31:06.344Z,-0.30
2023-01-29T17:36:16.543Z,-0.32
2023-01-29T17:41:26.371Z,-0.26
2023-01-29T17:46:31.960Z,-0.35
2023-01-29T17:51:36.260Z,-0.19
2023-01-29T17:56:42.052Z,-0.15
2023-01-29T18:01:47.124Z,-0.14
2023-01-29T18:06:53.171Z,-0.26
2023-01-29T18:11:59.199Z,-0.13
2023-01-29T18:17:06.375Z,-0.36
2023-01-29T18:22:14.211Z,-0.34
2023-01-29T18:27:21.570Z,-0.39
2023-01-29T18:32:26.870Z,-0.41
2023-01-29T18:37:31.987Z,-0.29
2023-01-29T18:42:40.080Z,-0.35
2023-01-29T18:47:44.947Z,-0.30
2023-01-29T18:52:51.777Z,-0.49
2023-01-29T18:58:27.239Z,-0.44
2023-01-29T19:03:26.538Z,-0.28
2023-01-29T19:08:31.331Z,-0.10
2023-01-29T19:13:41.371Z,-0.11
2023-01-29T19:18:46.094Z,-0.26
2023-01-29T19:23:51.153Z,-0.17
2023-01-29T19:28:57.832Z,-0.25
2023-01-29T19:34:02.975Z,-0.31
2023-01-29T19:39:15.950Z,-0.36
2023-01-29T19:44:25.815Z,-0.39
2023-01-29T19:49:31.313Z,-0.40
2023-01-29T19:54:40.441Z,-0.27
2023-01-29T19:59:48.250Z,-0.45
2023-01-29T20:05:01.728Z,-0.66
2023-01-29T20:10:12.314Z,-0.80
2023-01-29T20:15:20.284Z,-0.83
2023-01-29T20:20:24.557Z,-0.84
2023-01-29T20:25:36.540Z,-0.91
2023-01-29T20:30:44.801Z,-0.93
2023-01-29T20:35:54.969Z,-1.03
2023-01-29T20:41:05.702Z,-0.99
2023-01-29T20:46:15.175Z,-0.95
2023-01-29T20:51:22.932Z,-1.07
2023-01-29T20:56:32.147Z,-1.13
2023-01-29T21:01:46.271Z,-1.19
2023-01-29T21:06:51.414Z,-1.11
2023-01-29T21:11:55.952Z,-1.13
2023-01-29T21:17:08.461Z,-1.09
2023-01-29T21:22:12.698Z,-1.04
2023-01-29T21:27:16.852Z,-0.95
2023-01-29T21:32:22.436Z,-0.89
2023-01-29T21:37:27.227Z,-0.92
2023-01-29T21:42:49.024Z,-0.88
2023-01-29T21:47:54.594Z,-1.00
2023-01-29T21:52:58.617Z,-0.92
2023-01-29T21:58:02.630Z,-1.04
2023-01-29T22:03:09.000Z,-1.03
2023-01-29T22:08:13.465Z,-1.06
2023-01-29T22:13:18.608Z,-1.02
2023-01-29T22:18:24.125Z,-0.85
2023-01-29T22:23:28.216Z,-1.04
2023-01-29T22:28:33.350Z,-1.09
2023-01-29T22:33:39.399Z,-1.09
2023-01-29T22:38:44.715Z,-1.19
2023-01-29T22:43:48.768Z,-1.13
2023-01-29T22:48:55.321Z,-1.07
2023-01-29T22:54:01.231Z,-0.97
2023-01-29T22:59:05.304Z,-1.23
2023-01-29T23:04:12.867Z,-1.18
2023-01-29T23:09:17.157Z,-1.29
2023-01-29T23:14:21.313Z,-1.36
2023-01-29T23:19:27.571Z,-1.26
2023-01-29T23:24:33.884Z,-1.14
2023-01-29T23:29:40.493Z,-1.38
2023-01-29T23:34:46.573Z,-1.38
2023-01-29T23:39:51.564Z,-1.25
2023-01-29T23:44:55.557Z,-1.41
2023-01-29T23:50:01.134Z,-1.35
2023-01-29T23:55:05.791Z,-1.40
